sensor_id;sensor_type;location;lat;lon;timestamp;P1;durP1;ratioP1;P2;durP2;ratioP2
11064;SDS011;5585;52.530;7.320;2023-04-06T00:01:41;4.63;;;3.20;;
11064;SDS011;5585;52.530;7.320;2023-04-06T00:04:08;4.17;;;3.60;;
11064;SDS011;5585;52.530;7.320;2023-04-06T00:06:36;6.77;;;3.53;;
11064;SDS011;5585;52.530;7.320;2023-04-06T00:09:03;4.83;;;3.60;;
11064;SDS011;5585;52.530;7.320;2023-04-06T00:11:29;4.07;;;3.20;;
11064;SDS011;5585;52.530;7.320;2023-04-06T00:13:56;3.83;;;3.40;;
11064;SDS011;5585;52.530;7.320;2023-04-06T00:16:22;3.50;;;3.20;;
11064;SDS011;5585;52.530;7.320;2023-04-06T00:18:49;4.00;;;3.60;;
11064;SDS011;5585;52.530;7.320;2023-04-06T00:21:15;5.80;;;2.97;;
11064;SDS011;5585;52.530;7.320;2023-04-06T00:23:43;3.83;;;3.17;;
11064;SDS011;5585;52.530;7.320;2023-04-06T00:26:10;3.60;;;3.30;;
11064;SDS011;5585;52.530;7.320;2023-04-06T00:28:36;3.60;;;3.23;;
11064;SDS011;5585;52.530;7.320;2023-04-06T00:31:03;4.70;;;3.23;;
11064;SDS011;5585;52.530;7.320;2023-04-06T00:33:30;5.20;;;3.30;;
11064;SDS011;5585;52.530;7.320;2023-04-06T00:35:56;4.87;;;3.33;;
11064;SDS011;5585;52.530;7.320;2023-04-06T00:38:23;4.10;;;3.70;;
11064;SDS011;5585;52.530;7.320;2023-04-06T00:40:51;4.70;;;3.40;;
11064;SDS011;5585;52.530;7.320;2023-04-06T00:43:17;4.60;;;3.23;;
11064;SDS011;5585;52.530;7.320;2023-04-06T00:45:44;4.13;;;3.10;;
11064;SDS011;5585;52.530;7.320;2023-04-06T00:48:10;5.33;;;3.30;;
11064;SDS011;5585;52.530;7.320;2023-04-06T00:50:37;5.23;;;3.80;;
11064;SDS011;5585;52.530;7.320;2023-04-06T00:53:04;3.67;;;3.13;;
11064;SDS011;5585;52.530;7.320;2023-04-06T00:55:30;3.43;;;3.13;;
11064;SDS011;5585;52.530;7.320;2023-04-06T00:57:58;3.77;;;3.37;;
11064;SDS011;5585;52.530;7.320;2023-04-06T01:00:25;3.50;;;3.20;;
11064;SDS011;5585;52.530;7.320;2023-04-06T01:02:52;3.93;;;3.30;;
11064;SDS011;5585;52.530;7.320;2023-04-06T01:05:18;3.90;;;3.47;;
11064;SDS011;5585;52.530;7.320;2023-04-06T01:07:45;6.50;;;3.87;;
11064;SDS011;5585;52.530;7.320;2023-04-06T01:10:21;3.73;;;3.20;;
11064;SDS011;5585;52.530;7.320;2023-04-06T01:12:48;4.37;;;3.50;;
11064;SDS011;5585;52.530;7.320;2023-04-06T01:15:16;3.23;;;2.93;;
11064;SDS011;5585;52.530;7.320;2023-04-06T01:17:43;4.03;;;3.23;;
11064;SDS011;5585;52.530;7.320;2023-04-06T01:20:09;3.87;;;2.97;;
11064;SDS011;5585;52.530;7.320;2023-04-06T01:22:37;4.33;;;3.30;;
11064;SDS011;5585;52.530;7.320;2023-04-06T01:25:04;4.87;;;3.50;;
11064;SDS011;5585;52.530;7.320;2023-04-06T01:27:31;5.63;;;3.40;;
11064;SDS011;5585;52.530;7.320;2023-04-06T01:29:58;3.97;;;3.57;;
11064;SDS011;5585;52.530;7.320;2023-04-06T01:32:25;4.67;;;3.63;;
11064;SDS011;5585;52.530;7.320;2023-04-06T01:34:51;4.07;;;3.30;;
11064;SDS011;5585;52.530;7.320;2023-04-06T01:37:18;4.10;;;3.30;;
11064;SDS011;5585;52.530;7.320;2023-04-06T01:39:46;4.90;;;4.00;;
11064;SDS011;5585;52.530;7.320;2023-04-06T01:42:12;4.80;;;3.23;;
11064;SDS011;5585;52.530;7.320;2023-04-06T01:44:39;4.30;;;3.40;;
11064;SDS011;5585;52.530;7.320;2023-04-06T01:47:05;4.00;;;3.60;;
11064;SDS011;5585;52.530;7.320;2023-04-06T01:49:32;4.37;;;3.97;;
11064;SDS011;5585;52.530;7.320;2023-04-06T01:51:58;3.70;;;3.40;;
11064;SDS011;5585;52.530;7.320;2023-04-06T01:54:25;4.83;;;4.00;;
11064;SDS011;5585;52.530;7.320;2023-04-06T01:56:53;4.03;;;3.33;;
11064;SDS011;5585;52.530;7.320;2023-04-06T01:59:20;4.03;;;3.30;;
11064;SDS011;5585;52.530;7.320;2023-04-06T02:01:46;4.23;;;3.67;;
11064;SDS011;5585;52.530;7.320;2023-04-06T02:04:13;4.30;;;3.53;;
11064;SDS011;5585;52.530;7.320;2023-04-06T02:06:39;3.80;;;3.40;;
11064;SDS011;5585;52.530;7.320;2023-04-06T02:09:06;3.90;;;3.53;;
11064;SDS011;5585;52.530;7.320;2023-04-06T02:11:33;3.93;;;3.10;;
11064;SDS011;5585;52.530;7.320;2023-04-06T02:14:01;4.90;;;3.80;;
11064;SDS011;5585;52.530;7.320;2023-04-06T02:16:28;5.00;;;3.90;;
11064;SDS011;5585;52.530;7.320;2023-04-06T02:18:55;3.73;;;3.33;;
11064;SDS011;5585;52.530;7.320;2023-04-06T02:21:21;4.27;;;3.57;;
11064;SDS011;5585;52.530;7.320;2023-04-06T02:23:48;5.63;;;3.93;;
11064;SDS011;5585;52.530;7.320;2023-04-06T02:26:14;4.13;;;3.57;;
11064;SDS011;5585;52.530;7.320;2023-04-06T02:28:41;4.77;;;3.53;;
11064;SDS011;5585;52.530;7.320;2023-04-06T02:31:09;4.17;;;3.77;;
11064;SDS011;5585;52.530;7.320;2023-04-06T02:33:36;4.50;;;3.70;;
11064;SDS011;5585;52.530;7.320;2023-04-06T02:36:02;4.67;;;4.13;;
11064;SDS011;5585;52.530;7.320;2023-04-06T02:38:29;5.50;;;3.83;;
11064;SDS011;5585;52.530;7.320;2023-04-06T02:40:56;6.70;;;4.83;;
11064;SDS011;5585;52.530;7.320;2023-04-06T02:43:22;5.47;;;4.70;;
11064;SDS011;5585;52.530;7.320;2023-04-06T02:45:49;5.03;;;4.00;;
11064;SDS011;5585;52.530;7.320;2023-04-06T02:48:17;5.17;;;4.10;;
11064;SDS011;5585;52.530;7.320;2023-04-06T02:50:44;5.07;;;4.00;;
11064;SDS011;5585;52.530;7.320;2023-04-06T02:53:10;4.53;;;4.07;;
11064;SDS011;5585;52.530;7.320;2023-04-06T02:55:37;7.40;;;3.93;;
11064;SDS011;5585;52.530;7.320;2023-04-06T02:58:04;7.43;;;4.43;;
11064;SDS011;5585;52.530;7.320;2023-04-06T03:00:30;5.23;;;4.60;;
11064;SDS011;5585;52.530;7.320;2023-04-06T03:02:57;6.93;;;4.23;;
11064;SDS011;5585;52.530;7.320;2023-04-06T03:05:25;5.37;;;4.50;;
11064;SDS011;5585;52.530;7.320;2023-04-06T03:07:51;4.47;;;3.83;;
11064;SDS011;5585;52.530;7.320;2023-04-06T03:10:18;5.10;;;4.40;;
11064;SDS011;5585;52.530;7.320;2023-04-06T03:12:44;4.77;;;4.27;;
11064;SDS011;5585;52.530;7.320;2023-04-06T03:15:11;5.23;;;4.57;;
11064;SDS011;5585;52.530;7.320;2023-04-06T03:17:38;4.93;;;4.43;;
11064;SDS011;5585;52.530;7.320;2023-04-06T03:20:05;5.27;;;4.30;;
11064;SDS011;5585;52.530;7.320;2023-04-06T03:22:33;5.20;;;4.10;;
11064;SDS011;5585;52.530;7.320;2023-04-06T03:25:00;5.63;;;4.60;;
11064;SDS011;5585;52.530;7.320;2023-04-06T03:27:26;5.87;;;4.80;;
11064;SDS011;5585;52.530;7.320;2023-04-06T03:29:53;5.73;;;4.30;;
11064;SDS011;5585;52.530;7.320;2023-04-06T03:32:19;5.67;;;4.50;;
11064;SDS011;5585;52.530;7.320;2023-04-06T03:34:46;5.77;;;4.63;;
11064;SDS011;5585;52.530;7.320;2023-04-06T03:37:12;6.77;;;4.27;;
11064;SDS011;5585;52.530;7.320;2023-04-06T03:39:41;4.70;;;4.23;;
11064;SDS011;5585;52.530;7.320;2023-04-06T03:42:07;5.60;;;4.47;;
11064;SDS011;5585;52.530;7.320;2023-04-06T03:44:34;5.50;;;4.70;;
11064;SDS011;5585;52.530;7.320;2023-04-06T03:47:00;5.67;;;4.70;;
11064;SDS011;5585;52.530;7.320;2023-04-06T03:49:27;4.97;;;4.43;;
11064;SDS011;5585;52.530;7.320;2023-04-06T03:51:54;5.13;;;4.53;;
11064;SDS011;5585;52.530;7.320;2023-04-06T03:54:20;7.70;;;5.67;;
11064;SDS011;5585;52.530;7.320;2023-04-06T03:56:48;8.57;;;7.27;;
11064;SDS011;5585;52.530;7.320;2023-04-06T03:59:15;10.47;;;7.50;;
11064;SDS011;5585;52.530;7.320;2023-04-06T04:01:41;9.10;;;6.57;;
11064;SDS011;5585;52.530;7.320;2023-04-06T04:04:08;7.80;;;6.60;;
11064;SDS011;5585;52.530;7.320;2023-04-06T04:06:34;7.33;;;5.67;;
11064;SDS011;5585;52.530;7.320;2023-04-06T04:09:02;7.47;;;6.07;;
11064;SDS011;5585;52.530;7.320;2023-04-06T04:11:29;7.40;;;5.77;;
11064;SDS011;5585;52.530;7.320;2023-04-06T04:13:57;8.73;;;5.70;;
11064;SDS011;5585;52.530;7.320;2023-04-06T04:16:23;6.33;;;5.40;;
11064;SDS011;5585;52.530;7.320;2023-04-06T04:18:50;9.13;;;5.63;;
11064;SDS011;5585;52.530;7.320;2023-04-06T04:21:16;7.03;;;5.47;;
11064;SDS011;5585;52.530;7.320;2023-04-06T04:23:43;6.30;;;5.20;;
11064;SDS011;5585;52.530;7.320;2023-04-06T04:26:10;7.10;;;5.30;;
11064;SDS011;5585;52.530;7.320;2023-04-06T04:28:36;5.20;;;4.70;;
11064;SDS011;5585;52.530;7.320;2023-04-06T04:31:04;7.03;;;5.27;;
11064;SDS011;5585;52.530;7.320;2023-04-06T04:33:31;6.80;;;5.53;;
11064;SDS011;5585;52.530;7.320;2023-04-06T04:35:57;5.83;;;5.20;;
11064;SDS011;5585;52.530;7.320;2023-04-06T04:38:24;7.43;;;5.60;;
11064;SDS011;5585;52.530;7.320;2023-04-06T04:40:50;7.80;;;5.03;;
11064;SDS011;5585;52.530;7.320;2023-04-06T04:43:17;5.57;;;4.97;;
11064;SDS011;5585;52.530;7.320;2023-04-06T04:45:43;5.87;;;5.27;;
11064;SDS011;5585;52.530;7.320;2023-04-06T04:48:11;5.50;;;4.97;;
11064;SDS011;5585;52.530;7.320;2023-04-06T04:50:38;6.77;;;5.50;;
11064;SDS011;5585;52.530;7.320;2023-04-06T04:53:05;6.70;;;5.57;;
11064;SDS011;5585;52.530;7.320;2023-04-06T04:55:31;7.10;;;5.20;;
11064;SDS011;5585;52.530;7.320;2023-04-06T04:57:58;6.20;;;5.50;;
11064;SDS011;5585;52.530;7.320;2023-04-06T05:00:25;8.57;;;5.87;;
11064;SDS011;5585;52.530;7.320;2023-04-06T05:02:51;8.20;;;6.13;;
11064;SDS011;5585;52.530;7.320;2023-04-06T05:05:19;8.70;;;5.80;;
11064;SDS011;5585;52.530;7.320;2023-04-06T05:07:46;7.00;;;5.67;;
11064;SDS011;5585;52.530;7.320;2023-04-06T05:10:12;7.63;;;6.07;;
11064;SDS011;5585;52.530;7.320;2023-04-06T05:12:39;9.83;;;6.30;;
11064;SDS011;5585;52.530;7.320;2023-04-06T05:15:06;8.57;;;5.97;;
11064;SDS011;5585;52.530;7.320;2023-04-06T05:17:33;9.63;;;6.27;;
11064;SDS011;5585;52.530;7.320;2023-04-06T05:19:59;9.30;;;6.00;;
11064;SDS011;5585;52.530;7.320;2023-04-06T05:22:27;8.63;;;5.87;;
11064;SDS011;5585;52.530;7.320;2023-04-06T05:24:54;8.10;;;5.60;;
11064;SDS011;5585;52.530;7.320;2023-04-06T05:27:21;7.70;;;6.33;;
11064;SDS011;5585;52.530;7.320;2023-04-06T05:29:47;7.23;;;6.47;;
11064;SDS011;5585;52.530;7.320;2023-04-06T05:32:14;8.40;;;6.10;;
11064;SDS011;5585;52.530;7.320;2023-04-06T05:34:40;8.00;;;5.97;;
11064;SDS011;5585;52.530;7.320;2023-04-06T05:37:07;7.70;;;6.10;;
11064;SDS011;5585;52.530;7.320;2023-04-06T05:39:35;8.23;;;6.20;;
11064;SDS011;5585;52.530;7.320;2023-04-06T05:42:02;7.30;;;5.50;;
11064;SDS011;5585;52.530;7.320;2023-04-06T05:44:29;7.30;;;5.80;;
11064;SDS011;5585;52.530;7.320;2023-04-06T05:46:55;7.80;;;5.90;;
11064;SDS011;5585;52.530;7.320;2023-04-06T05:49:22;6.63;;;5.87;;
11064;SDS011;5585;52.530;7.320;2023-04-06T05:51:49;6.97;;;5.77;;
11064;SDS011;5585;52.530;7.320;2023-04-06T05:54:15;10.23;;;6.27;;
11064;SDS011;5585;52.530;7.320;2023-04-06T05:56:43;6.83;;;6.13;;
11064;SDS011;5585;52.530;7.320;2023-04-06T05:59:10;7.47;;;6.47;;
11064;SDS011;5585;52.530;7.320;2023-04-06T06:01:36;10.07;;;6.17;;
11064;SDS011;5585;52.530;7.320;2023-04-06T06:04:03;8.13;;;5.80;;
11064;SDS011;5585;52.530;7.320;2023-04-06T06:06:29;8.23;;;6.17;;
11064;SDS011;5585;52.530;7.320;2023-04-06T06:08:56;5.87;;;5.00;;
11064;SDS011;5585;52.530;7.320;2023-04-06T06:11:24;5.70;;;5.07;;
11064;SDS011;5585;52.530;7.320;2023-04-06T06:13:52;7.10;;;4.90;;
11064;SDS011;5585;52.530;7.320;2023-04-06T06:16:18;5.93;;;5.00;;
11064;SDS011;5585;52.530;7.320;2023-04-06T06:18:45;5.93;;;4.90;;
11064;SDS011;5585;52.530;7.320;2023-04-06T06:21:12;5.40;;;4.90;;
11064;SDS011;5585;52.530;7.320;2023-04-06T06:23:38;5.67;;;4.50;;
11064;SDS011;5585;52.530;7.320;2023-04-06T06:26:05;5.23;;;4.63;;
11064;SDS011;5585;52.530;7.320;2023-04-06T06:28:32;7.10;;;5.13;;
11064;SDS011;5585;52.530;7.320;2023-04-06T06:30:59;7.00;;;5.00;;
11064;SDS011;5585;52.530;7.320;2023-04-06T06:33:26;5.70;;;4.90;;
11064;SDS011;5585;52.530;7.320;2023-04-06T06:35:53;5.87;;;5.00;;
11064;SDS011;5585;52.530;7.320;2023-04-06T06:38:19;5.47;;;4.50;;
11064;SDS011;5585;52.530;7.320;2023-04-06T06:40:46;5.77;;;5.13;;
11064;SDS011;5585;52.530;7.320;2023-04-06T06:43:12;6.57;;;5.30;;
11064;SDS011;5585;52.530;7.320;2023-04-06T06:45:39;6.53;;;5.60;;
11064;SDS011;5585;52.530;7.320;2023-04-06T06:48:07;5.57;;;4.90;;
11064;SDS011;5585;52.530;7.320;2023-04-06T06:50:34;6.10;;;4.80;;
11064;SDS011;5585;52.530;7.320;2023-04-06T06:53:00;6.30;;;5.43;;
11064;SDS011;5585;52.530;7.320;2023-04-06T06:55:27;5.77;;;5.13;;
11064;SDS011;5585;52.530;7.320;2023-04-06T06:57:54;7.03;;;5.30;;
11064;SDS011;5585;52.530;7.320;2023-04-06T07:00:20;5.30;;;4.80;;
11064;SDS011;5585;52.530;7.320;2023-04-06T07:02:47;6.10;;;5.03;;
11064;SDS011;5585;52.530;7.320;2023-04-06T07:05:15;6.13;;;5.50;;
11064;SDS011;5585;52.530;7.320;2023-04-06T07:07:42;6.27;;;5.67;;
11064;SDS011;5585;52.530;7.320;2023-04-06T07:10:08;5.60;;;5.00;;
11064;SDS011;5585;52.530;7.320;2023-04-06T07:12:35;7.47;;;5.67;;
11064;SDS011;5585;52.530;7.320;2023-04-06T07:15:02;7.47;;;5.40;;
11064;SDS011;5585;52.530;7.320;2023-04-06T07:17:28;6.60;;;5.30;;
11064;SDS011;5585;52.530;7.320;2023-04-06T07:19:55;6.73;;;5.47;;
11064;SDS011;5585;52.530;7.320;2023-04-06T07:22:23;6.40;;;5.70;;
11064;SDS011;5585;52.530;7.320;2023-04-06T07:24:50;7.47;;;6.10;;
11064;SDS011;5585;52.530;7.320;2023-04-06T07:27:16;8.47;;;7.03;;
11064;SDS011;5585;52.530;7.320;2023-04-06T07:29:43;9.63;;;6.70;;
11064;SDS011;5585;52.530;7.320;2023-04-06T07:32:10;8.47;;;6.27;;
11064;SDS011;5585;52.530;7.320;2023-04-06T07:34:37;8.33;;;6.33;;
11064;SDS011;5585;52.530;7.320;2023-04-06T07:37:03;7.90;;;6.30;;
11064;SDS011;5585;52.530;7.320;2023-04-06T07:39:31;8.67;;;6.70;;
11064;SDS011;5585;52.530;7.320;2023-04-06T07:41:58;8.10;;;6.13;;
11064;SDS011;5585;52.530;7.320;2023-04-06T07:44:24;6.93;;;6.23;;
11064;SDS011;5585;52.530;7.320;2023-04-06T07:46:51;8.20;;;6.17;;
11064;SDS011;5585;52.530;7.320;2023-04-06T07:49:17;8.20;;;6.23;;
11064;SDS011;5585;52.530;7.320;2023-04-06T07:51:45;6.83;;;6.13;;
11064;SDS011;5585;52.530;7.320;2023-04-06T07:54:12;7.53;;;6.57;;
11064;SDS011;5585;52.530;7.320;2023-04-06T07:56:40;8.27;;;6.30;;
11064;SDS011;5585;52.530;7.320;2023-04-06T07:59:07;7.80;;;6.57;;
11064;SDS011;5585;52.530;7.320;2023-04-06T08:01:33;7.53;;;6.67;;
11064;SDS011;5585;52.530;7.320;2023-04-06T08:04:00;7.70;;;6.67;;
11064;SDS011;5585;52.530;7.320;2023-04-06T08:06:27;8.63;;;6.27;;
11064;SDS011;5585;52.530;7.320;2023-04-06T08:08:54;7.67;;;6.30;;
11064;SDS011;5585;52.530;7.320;2023-04-06T08:11:20;8.73;;;6.57;;
11064;SDS011;5585;52.530;7.320;2023-04-06T08:13:48;6.90;;;6.20;;
11064;SDS011;5585;52.530;7.320;2023-04-06T08:16:15;7.90;;;6.60;;
11064;SDS011;5585;52.530;7.320;2023-04-06T08:18:41;9.07;;;6.07;;
11064;SDS011;5585;52.530;7.320;2023-04-06T08:21:08;10.33;;;6.43;;
11064;SDS011;5585;52.530;7.320;2023-04-06T08:23:34;7.53;;;6.27;;
11064;SDS011;5585;52.530;7.320;2023-04-06T08:26:01;8.83;;;7.10;;
11064;SDS011;5585;52.530;7.320;2023-04-06T08:28:28;9.53;;;7.17;;
11064;SDS011;5585;52.530;7.320;2023-04-06T08:30:56;7.10;;;6.35;;
11064;SDS011;5585;52.530;7.320;2023-04-06T08:33:22;7.33;;;6.37;;
11064;SDS011;5585;52.530;7.320;2023-04-06T08:35:49;9.00;;;6.83;;
11064;SDS011;5585;52.530;7.320;2023-04-06T08:38:15;7.70;;;6.90;;
11064;SDS011;5585;52.530;7.320;2023-04-06T08:40:42;6.95;;;6.28;;
11064;SDS011;5585;52.530;7.320;2023-04-06T08:43:12;7.57;;;6.80;;
11064;SDS011;5585;52.530;7.320;2023-04-06T08:45:40;8.15;;;6.40;;
11064;SDS011;5585;52.530;7.320;2023-04-06T08:48:08;9.67;;;6.80;;
11064;SDS011;5585;52.530;7.320;2023-04-06T08:50:35;7.75;;;6.93;;
11064;SDS011;5585;52.530;7.320;2023-04-06T08:53:02;7.90;;;6.50;;
11064;SDS011;5585;52.530;7.320;2023-04-06T08:55:28;8.07;;;6.30;;
11064;SDS011;5585;52.530;7.320;2023-04-06T08:57:55;8.32;;;7.03;;
11064;SDS011;5585;52.530;7.320;2023-04-06T09:00:22;7.60;;;6.73;;
11064;SDS011;5585;52.530;7.320;2023-04-06T09:02:49;9.23;;;7.43;;
11064;SDS011;5585;52.530;7.320;2023-04-06T09:05:19;7.85;;;6.93;;
11064;SDS011;5585;52.530;7.320;2023-04-06T09:07:46;9.18;;;7.10;;
11064;SDS011;5585;52.530;7.320;2023-04-06T09:10:12;9.55;;;6.78;;
11064;SDS011;5585;52.530;7.320;2023-04-06T09:12:40;7.97;;;6.78;;
11064;SDS011;5585;52.530;7.320;2023-04-06T09:15:16;8.32;;;7.28;;
11064;SDS011;5585;52.530;7.320;2023-04-06T09:17:43;8.82;;;6.53;;
11064;SDS011;5585;52.530;7.320;2023-04-06T09:20:11;7.90;;;6.60;;
11064;SDS011;5585;52.530;7.320;2023-04-06T09:22:39;9.45;;;7.00;;
11064;SDS011;5585;52.530;7.320;2023-04-06T09:25:09;7.43;;;6.72;;
11064;SDS011;5585;52.530;7.320;2023-04-06T09:27:37;8.32;;;6.78;;
11064;SDS011;5585;52.530;7.320;2023-04-06T09:30:07;8.25;;;6.75;;
11064;SDS011;5585;52.530;7.320;2023-04-06T09:32:43;8.93;;;7.43;;
11064;SDS011;5585;52.530;7.320;2023-04-06T09:35:11;9.73;;;7.93;;
11064;SDS011;5585;52.530;7.320;2023-04-06T09:37:37;10.43;;;8.02;;
11064;SDS011;5585;52.530;7.320;2023-04-06T09:40:06;8.93;;;7.50;;
11064;SDS011;5585;52.530;7.320;2023-04-06T09:42:33;9.15;;;7.13;;
11064;SDS011;5585;52.530;7.320;2023-04-06T09:45:00;9.05;;;7.85;;
11064;SDS011;5585;52.530;7.320;2023-04-06T09:47:27;8.77;;;7.32;;
11064;SDS011;5585;52.530;7.320;2023-04-06T09:49:55;8.30;;;7.35;;
11064;SDS011;5585;52.530;7.320;2023-04-06T09:52:23;12.85;;;9.27;;
11064;SDS011;5585;52.530;7.320;2023-04-06T09:54:51;12.80;;;9.77;;
11064;SDS011;5585;52.530;7.320;2023-04-06T09:57:21;10.35;;;9.15;;
11064;SDS011;5585;52.530;7.320;2023-04-06T09:59:52;11.23;;;9.10;;
11064;SDS011;5585;52.530;7.320;2023-04-06T10:02:22;14.82;;;10.18;;
11064;SDS011;5585;52.530;7.320;2023-04-06T10:04:53;11.18;;;9.75;;
11064;SDS011;5585;52.530;7.320;2023-04-06T10:07:20;13.15;;;11.00;;
11064;SDS011;5585;52.530;7.320;2023-04-06T10:09:47;12.77;;;9.60;;
11064;SDS011;5585;52.530;7.320;2023-04-06T10:12:14;11.18;;;9.98;;
11064;SDS011;5585;52.530;7.320;2023-04-06T10:14:42;12.18;;;10.35;;
11064;SDS011;5585;52.530;7.320;2023-04-06T10:17:09;12.70;;;9.48;;
11064;SDS011;5585;52.530;7.320;2023-04-06T10:19:39;12.88;;;10.00;;
11064;SDS011;5585;52.530;7.320;2023-04-06T10:22:06;12.80;;;10.43;;
11064;SDS011;5585;52.530;7.320;2023-04-06T10:24:35;12.32;;;9.95;;
11064;SDS011;5585;52.530;7.320;2023-04-06T10:27:02;12.35;;;9.93;;
11064;SDS011;5585;52.530;7.320;2023-04-06T10:29:35;14.88;;;11.45;;
11064;SDS011;5585;52.530;7.320;2023-04-06T10:32:08;13.85;;;11.65;;
11064;SDS011;5585;52.530;7.320;2023-04-06T10:34:34;14.02;;;11.27;;
11064;SDS011;5585;52.530;7.320;2023-04-06T10:37:10;14.48;;;11.25;;
11064;SDS011;5585;52.530;7.320;2023-04-06T10:39:45;14.40;;;11.13;;
11064;SDS011;5585;52.530;7.320;2023-04-06T10:42:11;14.77;;;11.13;;
11064;SDS011;5585;52.530;7.320;2023-04-06T10:44:41;16.25;;;11.90;;
11064;SDS011;5585;52.530;7.320;2023-04-06T10:47:15;13.93;;;11.88;;
11064;SDS011;5585;52.530;7.320;2023-04-06T10:49:42;14.45;;;11.38;;
11064;SDS011;5585;52.530;7.320;2023-04-06T10:52:08;13.75;;;11.50;;
11064;SDS011;5585;52.530;7.320;2023-04-06T10:54:38;13.55;;;10.85;;
11064;SDS011;5585;52.530;7.320;2023-04-06T10:57:06;15.02;;;12.07;;
11064;SDS011;5585;52.530;7.320;2023-04-06T10:59:33;15.73;;;11.07;;
11064;SDS011;5585;52.530;7.320;2023-04-06T11:02:00;12.95;;;11.00;;
11064;SDS011;5585;52.530;7.320;2023-04-06T11:04:27;13.27;;;11.20;;
11064;SDS011;5585;52.530;7.320;2023-04-06T11:06:55;13.48;;;10.77;;
11064;SDS011;5585;52.530;7.320;2023-04-06T11:09:23;14.18;;;9.73;;
11064;SDS011;5585;52.530;7.320;2023-04-06T11:11:50;16.10;;;11.65;;
11064;SDS011;5585;52.530;7.320;2023-04-06T11:14:16;15.68;;;12.75;;
11064;SDS011;5585;52.530;7.320;2023-04-06T11:16:45;15.18;;;11.38;;
11064;SDS011;5585;52.530;7.320;2023-04-06T11:19:12;13.75;;;12.00;;
11064;SDS011;5585;52.530;7.320;2023-04-06T11:21:40;15.70;;;11.80;;
11064;SDS011;5585;52.530;7.320;2023-04-06T11:24:09;13.75;;;11.02;;
11064;SDS011;5585;52.530;7.320;2023-04-06T11:26:39;16.05;;;11.88;;
11064;SDS011;5585;52.530;7.320;2023-04-06T11:29:06;12.80;;;11.30;;
11064;SDS011;5585;52.530;7.320;2023-04-06T11:31:37;13.93;;;10.55;;
11064;SDS011;5585;52.530;7.320;2023-04-06T11:34:08;15.93;;;11.73;;
11064;SDS011;5585;52.530;7.320;2023-04-06T11:36:35;15.63;;;12.52;;
11064;SDS011;5585;52.530;7.320;2023-04-06T11:39:04;12.85;;;10.77;;
11064;SDS011;5585;52.530;7.320;2023-04-06T11:41:32;12.25;;;10.40;;
11064;SDS011;5585;52.530;7.320;2023-04-06T11:44:00;13.90;;;11.18;;
11064;SDS011;5585;52.530;7.320;2023-04-06T11:46:27;15.55;;;11.43;;
11064;SDS011;5585;52.530;7.320;2023-04-06T11:48:53;13.32;;;11.70;;
11064;SDS011;5585;52.530;7.320;2023-04-06T11:51:24;13.68;;;10.90;;
11064;SDS011;5585;52.530;7.320;2023-04-06T11:53:51;14.60;;;10.52;;
11064;SDS011;5585;52.530;7.320;2023-04-06T11:56:26;12.90;;;10.00;;
11064;SDS011;5585;52.530;7.320;2023-04-06T11:58:54;13.57;;;11.30;;
11064;SDS011;5585;52.530;7.320;2023-04-06T12:01:21;12.60;;;10.18;;
11064;SDS011;5585;52.530;7.320;2023-04-06T12:03:47;14.35;;;11.80;;
11064;SDS011;5585;52.530;7.320;2023-04-06T12:06:14;12.82;;;10.75;;
11064;SDS011;5585;52.530;7.320;2023-04-06T12:08:41;14.43;;;10.88;;
11064;SDS011;5585;52.530;7.320;2023-04-06T12:11:07;14.25;;;11.98;;
11064;SDS011;5585;52.530;7.320;2023-04-06T12:13:35;12.20;;;10.40;;
11064;SDS011;5585;52.530;7.320;2023-04-06T12:16:02;13.32;;;10.32;;
11064;SDS011;5585;52.530;7.320;2023-04-06T12:18:30;14.77;;;11.90;;
11064;SDS011;5585;52.530;7.320;2023-04-06T12:20:57;13.20;;;10.57;;
11064;SDS011;5585;52.530;7.320;2023-04-06T12:23:23;15.63;;;12.23;;
11064;SDS011;5585;52.530;7.320;2023-04-06T12:25:50;16.90;;;13.02;;
11064;SDS011;5585;52.530;7.320;2023-04-06T12:28:17;16.80;;;13.15;;
11064;SDS011;5585;52.530;7.320;2023-04-06T12:30:47;14.95;;;11.43;;
11064;SDS011;5585;52.530;7.320;2023-04-06T12:33:13;16.02;;;12.75;;
11064;SDS011;5585;52.530;7.320;2023-04-06T12:35:40;12.20;;;10.63;;
11064;SDS011;5585;52.530;7.320;2023-04-06T12:38:06;14.65;;;11.95;;
11064;SDS011;5585;52.530;7.320;2023-04-06T12:40:36;15.57;;;12.35;;
11064;SDS011;5585;52.530;7.320;2023-04-06T12:43:02;13.50;;;11.75;;
11064;SDS011;5585;52.530;7.320;2023-04-06T12:45:30;13.32;;;11.20;;
11064;SDS011;5585;52.530;7.320;2023-04-06T12:47:58;21.25;;;14.57;;
11064;SDS011;5585;52.530;7.320;2023-04-06T12:50:24;17.45;;;12.77;;
11064;SDS011;5585;52.530;7.320;2023-04-06T12:52:51;17.73;;;12.73;;
11064;SDS011;5585;52.530;7.320;2023-04-06T12:55:18;15.48;;;12.45;;
11064;SDS011;5585;52.530;7.320;2023-04-06T12:57:45;17.38;;;12.43;;
11064;SDS011;5585;52.530;7.320;2023-04-06T13:00:12;15.55;;;12.82;;
11064;SDS011;5585;52.530;7.320;2023-04-06T13:02:40;15.60;;;12.52;;
11064;SDS011;5585;52.530;7.320;2023-04-06T13:05:13;18.15;;;12.98;;
11064;SDS011;5585;52.530;7.320;2023-04-06T13:07:39;16.83;;;13.63;;
11064;SDS011;5585;52.530;7.320;2023-04-06T13:10:06;17.95;;;14.45;;
11064;SDS011;5585;52.530;7.320;2023-04-06T13:12:33;17.30;;;12.73;;
11064;SDS011;5585;52.530;7.320;2023-04-06T13:15:00;16.05;;;13.77;;
11064;SDS011;5585;52.530;7.320;2023-04-06T13:17:27;16.23;;;13.73;;
11064;SDS011;5585;52.530;7.320;2023-04-06T13:19:53;16.95;;;13.52;;
11064;SDS011;5585;52.530;7.320;2023-04-06T13:22:21;16.58;;;13.57;;
11064;SDS011;5585;52.530;7.320;2023-04-06T13:24:48;16.35;;;13.35;;
11064;SDS011;5585;52.530;7.320;2023-04-06T13:27:14;18.38;;;14.27;;
11064;SDS011;5585;52.530;7.320;2023-04-06T13:29:41;16.30;;;13.43;;
11064;SDS011;5585;52.530;7.320;2023-04-06T13:32:07;17.25;;;13.43;;
11064;SDS011;5585;52.530;7.320;2023-04-06T13:34:35;18.83;;;14.07;;
11064;SDS011;5585;52.530;7.320;2023-04-06T13:37:02;16.30;;;13.35;;
11064;SDS011;5585;52.530;7.320;2023-04-06T13:39:30;16.52;;;13.30;;
11064;SDS011;5585;52.530;7.320;2023-04-06T13:41:57;16.35;;;13.15;;
11064;SDS011;5585;52.530;7.320;2023-04-06T13:44:24;17.67;;;14.02;;
11064;SDS011;5585;52.530;7.320;2023-04-06T13:46:51;17.70;;;14.43;;
11064;SDS011;5585;52.530;7.320;2023-04-06T13:49:18;16.85;;;12.93;;
11064;SDS011;5585;52.530;7.320;2023-04-06T13:51:45;17.60;;;13.50;;
11064;SDS011;5585;52.530;7.320;2023-04-06T13:54:11;16.10;;;13.05;;
11064;SDS011;5585;52.530;7.320;2023-04-06T13:56:39;17.02;;;13.73;;
11064;SDS011;5585;52.530;7.320;2023-04-06T13:59:06;17.35;;;12.43;;
11064;SDS011;5585;52.530;7.320;2023-04-06T14:01:32;15.10;;;11.93;;
11064;SDS011;5585;52.530;7.320;2023-04-06T14:03:59;17.42;;;13.30;;
11064;SDS011;5585;52.530;7.320;2023-04-06T14:06:25;15.55;;;12.93;;
11064;SDS011;5585;52.530;7.320;2023-04-06T14:08:52;18.33;;;14.23;;
11064;SDS011;5585;52.530;7.320;2023-04-06T14:11:18;15.20;;;12.95;;
11064;SDS011;5585;52.530;7.320;2023-04-06T14:13:46;16.75;;;13.98;;
11064;SDS011;5585;52.530;7.320;2023-04-06T14:16:12;17.85;;;13.40;;
11064;SDS011;5585;52.530;7.320;2023-04-06T14:18:40;17.63;;;14.05;;
11064;SDS011;5585;52.530;7.320;2023-04-06T14:21:07;17.55;;;13.25;;
11064;SDS011;5585;52.530;7.320;2023-04-06T14:23:34;18.38;;;13.40;;
11064;SDS011;5585;52.530;7.320;2023-04-06T14:26:01;16.30;;;12.35;;
11064;SDS011;5585;52.530;7.320;2023-04-06T14:28:29;18.17;;;14.18;;
11064;SDS011;5585;52.530;7.320;2023-04-06T14:30:58;17.30;;;12.88;;
11064;SDS011;5585;52.530;7.320;2023-04-06T14:33:25;15.82;;;12.77;;
11064;SDS011;5585;52.530;7.320;2023-04-06T14:35:51;17.95;;;13.45;;
11064;SDS011;5585;52.530;7.320;2023-04-06T14:38:18;15.25;;;12.30;;
11064;SDS011;5585;52.530;7.320;2023-04-06T14:40:44;15.60;;;12.18;;
11064;SDS011;5585;52.530;7.320;2023-04-06T14:43:11;18.15;;;14.45;;
11064;SDS011;5585;52.530;7.320;2023-04-06T14:45:37;16.50;;;13.15;;
11064;SDS011;5585;52.530;7.320;2023-04-06T14:48:05;18.63;;;13.27;;
11064;SDS011;5585;52.530;7.320;2023-04-06T14:50:33;16.08;;;13.82;;
11064;SDS011;5585;52.530;7.320;2023-04-06T14:53:00;15.57;;;12.88;;